Time;durP1;ratioP1;P1;durP2;ratioP2;P2;SDS_P1;SDS_P2;PMS_P1;PMS_P2;Temp;Humidity;BMP_temperature;BMP_pressure;BME280_temperature;BME280_humidity;BME280_pressure;Samples;Min_cycle;Max_cycle;Signal;HPM_P1;HPM_P2
2023/04/26 00:01:26;;;;;;;6.03;2.33;;;4.70;99.90;;;;;;4992518;28;20081;-66
2023/04/26 00:03:52;;;;;;;5.50;2.33;;;4.60;99.90;;;;;;4991912;28;20081;-66
2023/04/26 00:06:19;;;;;;;6.32;2.30;;;4.60;99.90;;;;;;4974335;28;20081;-65
2023/04/26 00:08:45;;;;;;;5.55;2.70;;;4.60;99.90;;;;;;4992071;28;20108;-66
2023/04/26 00:11:12;;;;;;;5.80;2.47;;;4.60;99.90;;;;;;4974558;28;20144;-65
2023/04/26 00:13:38;;;;;;;8.20;2.67;;;4.60;99.90;;;;;;4993985;28;20058;-66
2023/04/26 00:16:04;;;;;;;5.40;2.60;;;4.50;99.90;;;;;;4993997;28;20054;-66
2023/04/26 00:18:31;;;;;;;4.40;2.30;;;4.50;99.90;;;;;;4994234;28;20153;-65
2023/04/26 00:20:57;;;;;;;7.70;2.85;;;4.50;99.90;;;;;;4993524;28;20220;-65
2023/04/26 00:23:23;;;;;;;6.60;2.30;;;4.60;99.90;;;;;;5009988;28;20113;-66
2023/04/26 00:25:50;;;;;;;4.78;2.13;;;4.60;99.90;;;;;;5011364;28;20111;-65
2023/04/26 00:28:16;;;;;;;7.32;2.55;;;4.60;99.90;;;;;;4993823;28;20181;-65
2023/04/26 00:30:46;;;;;;;4.65;2.20;;;4.60;99.90;;;;;;4993035;28;20114;-65
2023/04/26 00:33:12;;;;;;;4.25;2.28;;;4.60;99.90;;;;;;4978458;28;20090;-65
2023/04/26 00:35:39;;;;;;;4.30;1.85;;;4.60;99.90;;;;;;4991685;28;20054;-66
2023/04/26 00:38:06;;;;;;;5.80;2.03;;;4.60;99.90;;;;;;4974331;28;20062;-65
2023/04/26 00:40:34;;;;;;;6.85;2.33;;;4.70;99.90;;;;;;4973471;28;20058;-66
2023/04/26 00:43:02;;;;;;;4.38;2.08;;;4.70;99.90;;;;;;4987328;28;20058;-65
2023/04/26 00:45:28;;;;;;;7.32;1.90;;;4.70;99.90;;;;;;4993312;28;20458;-65
2023/04/26 00:47:55;;;;;;;5.25;1.80;;;4.70;99.90;;;;;;5011106;28;20068;-65
2023/04/26 00:50:21;;;;;;;4.10;2.58;;;4.80;99.90;;;;;;5010636;28;20512;-65
2023/04/26 00:52:49;;;;;;;9.25;2.67;;;4.70;99.90;;;;;;4998816;28;20386;-66
2023/04/26 00:55:15;;;;;;;6.47;2.40;;;4.70;99.90;;;;;;4991349;28;20054;-66
2023/04/26 00:57:44;;;;;;;7.03;2.20;;;4.70;99.90;;;;;;4974318;28;20184;-66
2023/04/26 01:00:11;;;;;;;4.07;1.92;;;4.70;99.90;;;;;;4989816;28;20138;-65
2023/04/26 01:02:37;;;;;;;5.07;2.00;;;4.60;99.90;;;;;;4974582;28;20129;-66
2023/04/26 01:05:05;;;;;;;4.25;2.22;;;4.60;99.90;;;;;;4978378;28;20046;-66
2023/04/26 01:07:32;;;;;;;3.58;1.75;;;4.60;99.90;;;;;;4973819;28;20334;-66
2023/04/26 01:09:59;;;;;;;3.30;2.40;;;4.60;99.90;;;;;;4973422;28;20054;-65
2023/04/26 01:12:26;;;;;;;4.97;2.45;;;4.60;99.90;;;;;;4999606;28;20085;-65
2023/04/26 01:14:54;;;;;;;4.13;2.22;;;4.60;99.90;;;;;;5010584;28;20049;-65
2023/04/26 01:17:33;;;;;;;8.10;2.38;;;4.60;99.90;;;;;;4993209;28;20053;-65
2023/04/26 01:20:31;;;;;;;4.40;1.83;;;4.60;99.90;;;;;;4992327;28;20490;-65
2023/04/26 01:22:57;;;;;;;4.72;2.58;;;4.60;99.90;;;;;;4992675;28;20146;-66
2023/04/26 01:25:24;;;;;;;3.15;2.15;;;4.60;99.90;;;;;;5010287;28;20061;-65
2023/04/26 01:27:50;;;;;;;6.35;2.35;;;4.60;99.90;;;;;;5010180;28;20046;-65
2023/04/26 01:30:16;;;;;;;5.18;2.08;;;4.50;99.90;;;;;;4992660;28;20260;-66
2023/04/26 01:32:42;;;;;;;4.97;2.22;;;4.50;99.90;;;;;;4999156;28;20051;-66
2023/04/26 01:35:09;;;;;;;4.85;2.60;;;4.50;99.90;;;;;;4990709;28;20459;-66
2023/04/26 01:37:35;;;;;;;4.82;2.30;;;4.40;99.90;;;;;;4991073;28;20075;-66
2023/04/26 01:40:05;;;;;;;4.95;1.80;;;4.40;99.90;;;;;;4990631;28;20379;-65
2023/04/26 01:42:31;;;;;;;5.35;2.78;;;4.40;99.90;;;;;;4986180;28;20137;-66
2023/04/26 01:44:57;;;;;;;3.75;2.25;;;4.40;99.90;;;;;;4996479;28;20054;-65
2023/04/26 01:47:25;;;;;;;4.85;2.30;;;4.40;99.90;;;;;;5014392;28;20126;-65
2023/04/26 01:49:51;;;;;;;4.28;1.92;;;4.40;99.90;;;;;;4996431;28;20054;-65
2023/04/26 01:52:18;;;;;;;4.88;2.53;;;4.40;99.90;;;;;;5006989;28;20054;-66
2023/04/26 01:54:44;;;;;;;8.32;2.30;;;4.40;99.90;;;;;;4977492;28;20054;-65
2023/04/26 01:57:11;;;;;;;7.05;2.63;;;4.40;99.90;;;;;;4994757;28;20129;-65
2023/04/26 01:59:37;;;;;;;4.13;2.47;;;4.30;99.90;;;;;;4960648;28;20086;-65
2023/04/26 02:02:03;;;;;;;5.50;2.28;;;4.40;99.90;;;;;;4994472;28;20125;-66
2023/04/26 02:04:29;;;;;;;3.47;2.20;;;4.40;99.90;;;;;;4994200;28;20051;-65
2023/04/26 02:06:56;;;;;;;5.60;2.42;;;4.30;99.90;;;;;;4994393;28;20486;-65
2023/04/26 02:09:22;;;;;;;4.85;2.45;;;4.30;99.90;;;;;;4994215;28;20088;-66
2023/04/26 02:11:48;;;;;;;4.95;2.20;;;4.40;99.90;;;;;;4977253;28;20066;-65
2023/04/26 02:14:15;;;;;;;7.72;2.55;;;4.30;99.90;;;;;;4994209;28;20145;-66
2023/04/26 02:16:42;;;;;;;5.18;2.63;;;4.30;99.90;;;;;;4976635;28;20129;-66
2023/04/26 02:19:11;;;;;;;4.30;2.22;;;4.30;99.90;;;;;;4976631;28;20062;-65
2023/04/26 02:21:57;;;;;;;6.65;2.65;;;4.20;99.90;;;;;;4995165;28;20225;-65
2023/04/26 02:24:23;;;;;;;5.10;2.72;;;4.30;99.90;;;;;;4996241;28;20474;-66
2023/04/26 02:26:51;;;;;;;4.70;2.50;;;4.20;99.90;;;;;;5013770;28;20446;-66
2023/04/26 02:29:18;;;;;;;5.88;2.35;;;4.30;99.90;;;;;;4995764;28;20072;-65
2023/04/26 02:31:44;;;;;;;8.77;2.53;;;4.20;99.90;;;;;;5010492;28;20068;-65
2023/04/26 02:34:11;;;;;;;5.78;2.50;;;4.30;99.90;;;;;;4977058;28;20097;-65
2023/04/26 02:36:37;;;;;;;7.97;2.30;;;4.30;99.90;;;;;;4993652;28;20090;-65
2023/04/26 02:39:04;;;;;;;4.10;2.35;;;4.20;99.90;;;;;;4993446;28;20047;-65
2023/04/26 02:41:32;;;;;;;5.45;2.53;;;4.20;99.90;;;;;;4994306;28;20042;-65
2023/04/26 02:43:58;;;;;;;4.22;2.60;;;4.30;99.90;;;;;;4993753;28;20424;-66
2023/04/26 02:46:25;;;;;;;8.90;2.72;;;4.20;99.90;;;;;;4960104;28;20442;-65
2023/04/26 02:48:51;;;;;;;5.25;2.35;;;4.20;99.90;;;;;;4993882;28;20057;-65
2023/04/26 02:51:17;;;;;;;5.78;2.15;;;4.10;99.90;;;;;;4975430;28;20133;-65
2023/04/26 02:53:43;;;;;;;9.98;3.10;;;4.10;99.90;;;;;;5011028;28;20177;-65
2023/04/26 02:56:10;;;;;;;4.35;2.20;;;4.10;99.90;;;;;;5013006;28;20053;-66
2023/04/26 02:58:36;;;;;;;6.60;2.88;;;4.20;99.90;;;;;;5012708;28;20137;-66
2023/04/26 03:01:03;;;;;;;7.68;3.03;;;4.20;99.90;;;;;;4995345;28;20076;-65
2023/04/26 03:03:29;;;;;;;5.85;2.15;;;4.20;99.90;;;;;;4979314;28;20082;-66
2023/04/26 03:05:55;;;;;;;5.15;2.85;;;4.30;99.90;;;;;;4975676;28;20450;-66
2023/04/26 03:08:22;;;;;;;5.25;2.42;;;4.40;99.90;;;;;;4993344;28;20077;-66
2023/04/26 03:10:48;;;;;;;5.57;2.08;;;4.40;99.90;;;;;;4992607;28;20351;-65
2023/04/26 03:13:14;;;;;;;5.47;2.88;;;4.50;99.90;;;;;;4976534;28;20430;-65
2023/04/26 03:15:46;;;;;;;6.53;2.95;;;4.50;99.90;;;;;;4993535;28;20069;-65
2023/04/26 03:18:12;;;;;;;;;;;4.60;99.90;;;;;;4993740;28;20136;-65
2023/04/26 03:20:39;;;;;;;3.47;2.25;;;4.60;99.90;;;;;;4975667;28;19940;-65
2023/04/26 03:23:06;;;;;;;6.63;2.97;;;4.60;99.90;;;;;;4976150;28;20491;-66
2023/04/26 03:25:32;;;;;;;5.97;3.10;;;4.60;99.90;;;;;;4975747;28;20057;-65
2023/04/26 03:27:59;;;;;;;3.80;2.20;;;4.60;99.90;;;;;;4975767;28;20066;-65
2023/04/26 03:30:25;;;;;;;5.50;2.55;;;4.60;99.90;;;;;;4992799;28;20451;-65
2023/04/26 03:32:52;;;;;;;5.00;2.33;;;4.60;99.90;;;;;;4983648;28;20169;-65
2023/04/26 03:35:18;;;;;;;5.30;2.90;;;4.60;99.90;;;;;;4975677;28;20161;-65
2023/04/26 03:37:44;;;;;;;4.15;2.13;;;4.60;99.90;;;;;;4975542;28;20058;-65
2023/04/26 03:40:11;;;;;;;5.15;2.90;;;4.70;99.90;;;;;;4975443;28;20062;-65
2023/04/26 03:42:37;;;;;;;3.78;2.20;;;4.70;99.90;;;;;;4992843;28;20082;-65
2023/04/26 03:45:04;;;;;;;3.60;2.00;;;4.70;99.90;;;;;;4975731;28;20061;-65
2023/04/26 03:47:31;;;;;;;4.53;2.40;;;4.90;99.90;;;;;;4991447;28;20109;-65
2023/04/26 03:49:57;;;;;;;5.13;2.20;;;4.90;99.90;;;;;;4975199;28;20120;-65
2023/04/26 03:52:23;;;;;;;3.35;2.33;;;5.00;99.90;;;;;;4982621;28;20085;-66
2023/04/26 03:54:50;;;;;;;3.53;2.22;;;5.10;99.90;;;;;;4994734;28;20049;-65
2023/04/26 03:57:16;;;;;;;4.93;2.40;;;5.10;99.90;;;;;;4994834;28;20081;-65
2023/04/26 03:59:42;;;;;;;5.57;2.47;;;5.10;99.90;;;;;;4994674;28;20145;-65
2023/04/26 04:02:08;;;;;;;6.03;2.20;;;5.10;99.90;;;;;;4988897;28;20108;-66
2023/04/26 04:04:36;;;;;;;6.22;2.30;;;5.20;99.90;;;;;;4974434;28;20058;-66
2023/04/26 04:07:02;;;;;;;4.13;2.35;;;5.20;99.90;;;;;;4974779;28;20504;-65
2023/04/26 04:09:28;;;;;;;6.68;2.30;;;5.10;99.90;;;;;;4974619;28;20050;-65
2023/04/26 04:11:55;;;;;;;3.97;2.20;;;5.20;99.90;;;;;;4977988;28;20058;-66
2023/04/26 04:14:21;;;;;;;5.15;2.15;;;5.10;99.90;;;;;;4994759;28;20132;-66
2023/04/26 04:16:47;;;;;;;4.13;2.22;;;5.10;99.90;;;;;;4995238;28;20470;-65
2023/04/26 04:19:14;;;;;;;3.58;2.38;;;5.00;99.90;;;;;;4994011;28;20057;-65
2023/04/26 04:21:42;;;;;;;3.72;1.80;;;5.00;99.90;;;;;;4993292;28;20335;-65
2023/04/26 04:24:08;;;;;;;5.65;2.35;;;4.90;99.90;;;;;;4971374;28;20090;-65
2023/04/26 04:26:43;;;;;;;4.85;2.22;;;4.90;99.90;;;;;;5088497;27;20408;-64
2023/04/26 04:29:10;;;;;;;4.18;1.83;;;4.80;99.90;;;;;;5086756;28;20075;-65
2023/04/26 04:31:36;;;;;;;4.32;2.40;;;4.80;99.90;;;;;;5087323;28;20412;-64
2023/04/26 04:34:03;;;;;;;5.00;2.03;;;4.80;99.90;;;;;;5086961;28;20052;-65
2023/04/26 04:36:30;;;;;;;3.72;2.25;;;4.70;99.90;;;;;;5087380;28;20048;-65
2023/04/26 04:38:57;;;;;;;5.60;2.13;;;4.70;99.90;;;;;;5087175;28;20087;-65
2023/04/26 04:41:23;;;;;;;5.10;2.28;;;4.80;99.90;;;;;;5070454;28;20221;-64
2023/04/26 04:43:49;;;;;;;3.67;2.03;;;4.80;99.90;;;;;;5086741;28;20105;-65
2023/04/26 04:46:16;;;;;;;3.53;1.92;;;4.80;99.90;;;;;;5086968;28;20506;-65
2023/04/26 04:48:43;;;;;;;3.90;2.00;;;4.90;99.90;;;;;;5087275;28;20062;-65
2023/04/26 04:51:09;;;;;;;3.22;2.25;;;4.90;99.90;;;;;;5086746;28;20048;-65
2023/04/26 04:53:35;;;;;;;5.65;2.88;;;5.00;99.90;;;;;;5086942;28;20063;-65
2023/04/26 04:56:02;;;;;;;3.75;2.30;;;5.10;99.90;;;;;;5086822;28;20059;-65
2023/04/26 04:58:28;;;;;;;6.50;3.67;;;5.10;99.90;;;;;;5086285;28;20079;-65
2023/04/26 05:00:54;;;;;;;5.38;3.40;;;5.10;99.90;;;;;;5085842;28;20055;-65
2023/04/26 05:03:21;;;;;;;5.63;2.90;;;5.10;99.90;;;;;;5069278;28;20412;-65
2023/04/26 05:05:47;;;;;;;4.28;2.45;;;5.10;99.90;;;;;;5085354;28;20051;-65
2023/04/26 05:08:14;;;;;;;5.32;2.80;;;5.10;99.90;;;;;;5069510;28;20040;-65
2023/04/26 05:10:40;;;;;;;6.05;2.25;;;5.10;99.90;;;;;;5085711;28;20044;-65
2023/04/26 05:13:06;;;;;;;10.85;2.97;;;5.10;99.90;;;;;;5085747;28;20048;-64
2023/04/26 05:15:32;;;;;;;4.97;2.88;;;5.50;99.90;;;;;;5086296;28;20052;-65
2023/04/26 05:17:58;;;;;;;4.60;2.17;;;5.90;99.90;;;;;;5069553;28;20080;-65
2023/04/26 05:20:25;;;;;;;6.80;2.53;;;6.00;99.90;;;;;;5086194;28;20084;-65
2023/04/26 05:22:51;;;;;;;3.80;2.03;;;6.00;99.90;;;;;;5086844;28;20067;-65
2023/04/26 05:25:17;;;;;;;4.72;2.40;;;5.90;99.90;;;;;;5085676;28;20084;-64
2023/04/26 05:27:44;;;;;;;5.50;2.55;;;5.80;99.90;;;;;;5068475;28;20083;-65
2023/04/26 05:30:11;;;;;;;3.90;2.40;;;5.70;99.90;;;;;;5085877;28;20044;-64
2023/04/26 05:32:38;;;;;;;7.25;2.70;;;5.70;99.90;;;;;;5068138;28;20087;-64
2023/04/26 05:35:04;;;;;;;6.18;2.58;;;5.80;99.90;;;;;;5085142;28;20055;-65
2023/04/26 05:37:31;;;;;;;6.15;2.80;;;5.80;99.90;;;;;;5074589;28;20052;-65
2023/04/26 05:39:57;;;;;;;4.90;3.10;;;5.80;99.90;;;;;;5071619;28;20158;-65
2023/04/26 05:42:23;;;;;;;6.20;2.70;;;5.90;99.90;;;;;;5071627;28;20090;-65
2023/04/26 05:44:49;;;;;;;3.85;2.58;;;5.90;99.90;;;;;;5072224;28;20056;-65
2023/04/26 05:47:16;;;;;;;7.55;3.08;;;5.90;99.90;;;;;;5071523;28;20138;-65
2023/04/26 05:49:42;;;;;;;7.68;3.22;;;5.90;99.90;;;;;;5071103;28;20134;-65
2023/04/26 05:52:08;;;;;;;6.50;2.60;;;5.90;99.90;;;;;;5070999;28;20041;-65
2023/04/26 05:54:34;;;;;;;6.35;2.35;;;5.90;99.90;;;;;;5071317;28;20056;-65
2023/04/26 05:57:01;;;;;;;7.70;2.45;;;5.90;99.90;;;;;;5071011;28;20045;-65
2023/04/26 05:59:31;;;;;;;4.28;2.45;;;5.90;99.90;;;;;;5070791;28;20452;-65
2023/04/26 06:01:57;;;;;;;9.45;2.88;;;5.90;99.90;;;;;;5054248;28;20048;-65
2023/04/26 06:04:24;;;;;;;5.88;2.45;;;6.10;99.90;;;;;;5071236;28;20080;-65
2023/04/26 06:06:50;;;;;;;4.75;2.20;;;6.30;99.90;;;;;;5071322;28;20127;-65
2023/04/26 06:09:16;;;;;;;4.90;2.30;;;6.70;99.90;;;;;;5054656;28;20441;-65
2023/04/26 06:11:42;;;;;;;3.50;2.05;;;6.70;99.90;;;;;;5070801;28;20048;-65
2023/04/26 06:14:09;;;;;;;5.13;2.22;;;6.80;99.90;;;;;;5071385;28;20094;-65
2023/04/26 06:16:35;;;;;;;4.68;2.00;;;6.80;99.90;;;;;;5071531;28;20066;-65
2023/04/26 06:19:01;;;;;;;3.80;2.03;;;6.90;99.90;;;;;;5070600;28;20087;-65
2023/04/26 06:21:28;;;;;;;7.00;3.00;;;6.80;99.90;;;;;;5070871;28;20377;-65
2023/04/26 06:23:54;;;;;;;4.50;2.65;;;6.80;99.90;;;;;;5053777;28;20506;-65
2023/04/26 06:26:21;;;;;;;6.80;3.00;;;6.70;99.90;;;;;;5053742;28;20052;-65
2023/04/26 06:28:47;;;;;;;7.13;2.70;;;6.60;99.90;;;;;;5053661;28;20479;-65
2023/04/26 06:31:13;;;;;;;6.07;2.80;;;6.60;99.90;;;;;;5071253;28;20113;-65
2023/04/26 06:33:40;;;;;;;3.83;2.25;;;6.60;99.90;;;;;;5070823;28;20107;-65
2023/04/26 06:36:10;;;;;;;6.18;2.40;;;6.60;99.90;;;;;;5070545;28;20088;-65
2023/04/26 06:38:37;;;;;;;5.60;2.15;;;6.60;99.90;;;;;;5070474;28;20182;-66
2023/04/26 06:41:03;;;;;;;5.03;2.50;;;6.70;99.90;;;;;;5070400;28;20527;-66
2023/04/26 06:43:29;;;;;;;8.07;2.80;;;6.70;99.90;;;;;;5070297;28;20056;-65
2023/04/26 06:45:56;;;;;;;5.43;2.88;;;6.80;99.90;;;;;;5070233;28;20433;-65
2023/04/26 06:48:22;;;;;;;4.35;2.35;;;6.80;99.90;;;;;;5069376;28;20044;-65
2023/04/26 06:50:48;;;;;;;5.38;2.50;;;6.80;99.90;;;;;;5070008;28;20048;-64
2023/04/26 06:53:14;;;;;;;5.78;2.63;;;6.90;99.90;;;;;;5070542;28;20063;-65
2023/04/26 06:55:41;;;;;;;5.25;2.58;;;6.90;99.90;;;;;;5070310;28;20056;-65
2023/04/26 06:58:07;;;;;;;3.72;2.25;;;6.80;99.90;;;;;;5070413;28;20084;-65
2023/04/26 07:00:33;;;;;;;4.35;2.55;;;6.90;99.90;;;;;;5069675;28;20383;-65
2023/04/26 07:02:59;;;;;;;4.32;2.45;;;7.00;99.90;;;;;;5069591;28;20067;-66
2023/04/26 07:05:26;;;;;;;5.50;2.75;;;7.10;99.90;;;;;;5070380;28;20131;-65
2023/04/26 07:07:52;;;;;;;7.80;2.63;;;7.20;99.90;;;;;;5070611;28;20091;-65
2023/04/26 07:10:19;;;;;;;6.63;3.20;;;7.20;99.90;;;;;;5070095;28;20424;-65
2023/04/26 07:12:46;;;;;;;7.00;2.90;;;7.30;99.90;;;;;;5070256;28;20052;-65
2023/04/26 07:15:15;;;;;;;5.53;2.60;;;7.40;99.90;;;;;;5070324;28;20114;-67
2023/04/26 07:17:42;;;;;;;3.60;2.22;;;7.30;99.90;;;;;;5053863;28;20366;-66
2023/04/26 07:20:09;;;;;;;6.03;2.40;;;7.40;99.90;;;;;;5069050;28;20095;-66
2023/04/26 07:22:39;;;;;;;4.93;2.20;;;7.50;99.90;;;;;;5070294;28;20158;-66
2023/04/26 07:25:06;;;;;;;5.22;2.60;;;7.70;99.90;;;;;;5069166;28;20056;-66
2023/04/26 07:27:32;;;;;;;4.70;1.90;;;8.10;99.90;;;;;;5069349;28;20079;-67
2023/04/26 07:29:58;;;;;;;3.65;2.08;;;8.40;99.90;;;;;;5069086;28;20128;-66
2023/04/26 07:32:25;;;;;;;5.38;1.92;;;8.60;99.90;;;;;;5069385;28;20032;-67
2023/04/26 07:34:51;;;;;;;3.67;1.95;;;8.50;99.90;;;;;;5069793;28;20127;-66
2023/04/26 07:37:17;;;;;;;3.72;2.05;;;8.60;99.90;;;;;;5069381;28;20097;-67
2023/04/26 07:39:43;;;;;;;5.38;2.10;;;8.40;99.90;;;;;;5068955;28;20083;-66
2023/04/26 07:42:10;;;;;;;3.65;1.77;;;8.40;99.90;;;;;;5069547;28;20055;-66
2023/04/26 07:44:36;;;;;;;6.45;2.05;;;8.40;99.90;;;;;;5069553;28;20088;-66
2023/04/26 07:47:02;;;;;;;4.90;1.85;;;8.30;99.90;;;;;;5068922;28;20053;-66
2023/04/26 07:49:28;;;;;;;4.07;1.90;;;8.30;99.90;;;;;;5068697;28;20136;-66
2023/04/26 07:51:57;;;;;;;5.03;1.88;;;8.30;99.90;;;;;;5052443;28;20045;-65
2023/04/26 07:54:23;;;;;;;6.68;2.88;;;8.30;99.90;;;;;;5069229;28;20150;-67
2023/04/26 07:56:49;;;;;;;3.75;1.88;;;8.20;99.90;;;;;;5068908;28;20060;-65
2023/04/26 07:59:15;;;;;;;4.35;2.08;;;8.20;99.90;;;;;;5068547;28;20087;-66
2023/04/26 08:01:42;;;;;;;4.97;2.00;;;8.30;99.90;;;;;;5069268;28;20044;-67
2023/04/26 08:04:08;;;;;;;7.25;2.78;;;8.40;99.90;;;;;;5068659;28;20056;-66
2023/04/26 08:06:34;;;;;;;3.97;2.67;;;8.50;99.90;;;;;;5069365;28;20497;-67
2023/04/26 08:09:01;;;;;;;4.40;1.85;;;8.50;99.90;;;;;;5068523;28;20125;-66
2023/04/26 08:11:27;;;;;;;3.83;1.73;;;8.50;99.90;;;;;;5069095;28;20076;-66
2023/04/26 08:13:55;;;;;;;4.47;1.95;;;8.70;99.90;;;;;;5068661;28;20045;-66
2023/04/26 08:16:21;;;;;;;4.72;1.90;;;8.90;99.90;;;;;;5068994;28;20049;-66
2023/04/26 08:18:48;;;;;;;4.28;2.13;;;9.00;99.90;;;;;;5068702;28;20490;-66
2023/04/26 08:21:14;;;;;;;5.57;1.92;;;9.10;99.90;;;;;;5070098;28;20076;-66
2023/04/26 08:23:40;;;;;;;6.25;1.92;;;9.10;99.90;;;;;;5069877;28;20131;-66
2023/04/26 08:26:07;;;;;;;5.03;2.05;;;9.10;99.90;;;;;;5069386;28;20337;-66
2023/04/26 08:28:34;;;;;;;4.55;2.10;;;9.20;99.90;;;;;;5069662;28;20041;-66
2023/04/26 08:31:00;;;;;;;4.40;2.20;;;9.30;99.90;;;;;;5070190;28;20045;-66
2023/04/26 08:33:26;;;;;;;4.65;1.63;;;9.40;99.90;;;;;;5068833;28;20100;-66
2023/04/26 08:35:53;;;;;;;7.07;2.80;;;9.50;99.90;;;;;;5069774;28;20100;-63
2023/04/26 08:38:21;;;;;;;4.30;2.35;;;9.50;99.90;;;;;;5070017;28;20387;-66
2023/04/26 08:40:47;;;;;;;6.88;2.22;;;9.50;99.90;;;;;;5069633;28;20155;-66
2023/04/26 08:43:17;;;;;;;5.80;1.92;;;9.50;99.90;;;;;;5069608;28;20098;-64
2023/04/26 08:45:47;;;;;;;5.43;2.47;;;9.60;99.90;;;;;;5069860;28;20469;-63
2023/04/26 08:48:16;;;;;;;5.30;2.35;;;9.50;99.90;;;;;;5070159;28;20083;-65
2023/04/26 08:50:46;;;;;;;5.88;2.55;;;9.50;99.90;;;;;;5069431;28;20454;-66
2023/04/26 08:53:16;;;;;;;8.27;3.08;;;9.50;99.90;;;;;;5069469;28;20044;-67
2023/04/26 08:55:49;;;;;;;9.80;2.35;;;9.50;99.90;;;;;;5068680;28;20049;-67
2023/04/26 08:58:20;;;;;;;5.28;2.15;;;9.50;99.90;;;;;;5069712;28;20053;-66
2023/04/26 09:00:47;;;;;;;4.40;2.20;;;9.50;99.90;;;;;;5069398;28;20528;-67
2023/04/26 09:03:13;;;;;;;4.75;2.35;;;9.60;99.90;;;;;;5070249;28;20094;-63
2023/04/26 09:05:43;;;;;;;7.93;2.50;;;9.50;99.90;;;;;;5070368;28;20080;-64
2023/04/26 09:08:14;;;;;;;6.97;2.45;;;9.60;99.90;;;;;;5069098;28;20052;-63
2023/04/26 09:10:41;;;;;;;4.30;1.85;;;9.70;99.90;;;;;;5068740;28;20144;-64
2023/04/26 09:13:07;;;;;;;4.93;2.45;;;9.70;99.90;;;;;;5073028;28;20436;-64
2023/04/26 09:15:34;;;;;;;4.00;2.15;;;9.80;99.90;;;;;;5074112;28;20170;-65
2023/04/26 09:18:21;;;;;;;5.60;2.42;;;9.80;99.90;;;;;;5073706;28;20063;-65
2023/04/26 09:21:05;;;;;;;3.75;1.75;;;9.90;99.90;;;;;;5072966;28;20049;-65
2023/04/26 09:23:32;;;;;;;4.97;1.90;;;10.10;99.90;;;;;;5071683;28;20060;-65
2023/04/26 09:26:19;;;;;;;3.75;2.15;;;10.30;99.90;;;;;;5073319;28;20112;-64
2023/04/26 09:28:46;;;;;;;6.82;1.83;;;10.70;99.90;;;;;;5071447;28;20059;-65
2023/04/26 09:31:36;;;;;;;4.97;2.08;;;10.60;99.90;;;;;;5072004;28;20122;-65
2023/04/26 09:34:02;;;;;;;5.40;1.92;;;10.80;99.90;;;;;;5072833;28;20154;-64
2023/04/26 09:36:28;;;;;;;4.97;2.20;;;10.40;99.90;;;;;;5072844;28;20067;-65
2023/04/26 09:38:55;;;;;;;5.03;1.92;;;10.00;99.90;;;;;;5071035;28;20090;-65
2023/04/26 09:41:21;;;;;;;2.80;1.98;;;9.90;99.90;;;;;;5071634;28;20088;-65
2023/04/26 09:43:50;;;;;;;5.43;2.40;;;9.80;99.90;;;;;;5072225;28;20140;-65
2023/04/26 09:46:25;;;;;;;5.68;2.42;;;9.70;99.90;;;;;;5072771;28;20351;-65
2023/04/26 09:49:02;;;;;;;3.78;2.33;;;9.60;99.90;;;;;;5072301;28;20054;-65
2023/04/26 09:51:28;;;;;;;3.42;2.08;;;9.40;99.90;;;;;;5071415;28;20142;-65
2023/04/26 09:53:54;;;;;;;8.30;2.22;;;9.30;99.90;;;;;;5071024;28;20040;-65
2023/04/26 09:56:21;;;;;;;4.93;2.17;;;9.50;99.90;;;;;;5072624;28;20064;-65
2023/04/26 09:58:47;;;;;;;8.10;3.10;;;9.40;99.90;;;;;;5072079;28;20140;-65
2023/04/26 10:01:16;;;;;;;6.70;3.00;;;9.50;99.90;;;;;;5072543;28;20428;-64
2023/04/26 10:03:43;;;;;;;4.95;2.78;;;9.60;99.90;;;;;;5072415;28;20432;-65
2023/04/26 10:06:11;;;;;;;3.65;2.67;;;9.60;99.90;;;;;;5071910;28;20066;-65
2023/04/26 10:08:37;;;;;;;6.68;2.70;;;9.60;99.90;;;;;;5071152;28;20523;-64
2023/04/26 10:11:06;;;;;;;5.97;3.22;;;9.50;99.90;;;;;;5071381;28;20551;-65
2023/04/26 10:13:33;;;;;;;7.85;3.00;;;9.50;99.90;;;;;;5072640;28;20148;-65
2023/04/26 10:16:03;;;;;;;4.38;1.95;;;9.70;99.90;;;;;;5071283;28;20095;-65
2023/04/26 10:18:30;;;;;;;5.43;2.10;;;9.60;99.90;;;;;;5070517;28;20102;-65
2023/04/26 10:21:15;;;;;;;4.72;2.72;;;9.60;99.90;;;;;;5070629;28;20421;-65
2023/04/26 10:23:42;;;;;;;4.32;2.50;;;9.60;99.90;;;;;;5070680;28;20052;-64
2023/04/26 10:26:48;;;;;;;3.90;1.92;;;9.60;99.90;;;;;;5070406;28;20048;-65
2023/04/26 10:29:14;;;;;;;3.92;2.00;;;9.80;99.90;;;;;;5071571;28;20072;-65
2023/04/26 10:32:03;;;;;;;4.70;2.47;;;10.10;99.90;;;;;;5070786;28;20075;-65
2023/04/26 10:34:40;;;;;;;2.70;2.00;;;10.10;99.90;;;;;;5050235;28;20071;-64
2023/04/26 10:37:07;;;;;;;3.97;2.00;;;10.10;99.90;;;;;;5071471;28;20084;-65
2023/04/26 10:39:35;;;;;;;5.38;2.42;;;9.90;99.90;;;;;;5053440;28;20374;-64
2023/04/26 10:42:24;;;;;;;4.38;2.42;;;9.80;99.90;;;;;;5055296;28;20421;-65
2023/04/26 10:44:58;;;;;;;4.05;2.10;;;9.80;99.90;;;;;;5091982;28;20048;-66
2023/04/26 10:47:33;;;;;;;3.50;2.15;;;9.60;99.90;;;;;;5073794;28;20066;-64
2023/04/26 10:50:09;;;;;;;6.35;2.08;;;9.60;99.90;;;;;;5091090;28;20040;-64
2023/04/26 10:53:02;;;;;;;3.10;2.13;;;9.60;99.90;;;;;;5073279;28;20127;-63
2023/04/26 10:55:41;;;;;;;4.95;2.20;;;9.40;99.90;;;;;;5091163;28;20048;-64
2023/04/26 10:58:40;;;;;;;6.15;2.28;;;9.30;99.90;;;;;;5091724;28;20080;-64
2023/04/26 11:01:12;;;;;;;4.25;3.28;;;9.30;99.90;;;;;;5024988;28;20048;-65
2023/04/26 11:03:40;;;;;;;6.25;2.55;;;9.30;99.90;;;;;;5083236;28;20058;-65
2023/04/26 11:06:08;;;;;;;5.70;2.53;;;9.30;99.90;;;;;;5091384;28;20491;-64
2023/04/26 11:08:35;;;;;;;4.40;2.70;;;9.40;99.90;;;;;;5091379;28;20083;-64
2023/04/26 11:11:02;;;;;;;3.60;2.53;;;9.50;99.90;;;;;;5073107;28;20488;-65
2023/04/26 11:13:39;;;;;;;7.18;2.70;;;9.50;99.90;;;;;;5090923;28;20409;-65
2023/04/26 11:16:08;;;;;;;3.85;2.33;;;9.60;99.90;;;;;;5091335;28;20077;-64
2023/04/26 11:18:37;;;;;;;4.25;1.92;;;9.60;99.90;;;;;;5091328;28;20087;-64
2023/04/26 11:21:05;;;;;;;8.50;2.80;;;10.00;99.90;;;;;;5091068;28;20516;-64
2023/04/26 11:23:32;;;;;;;6.97;2.30;;;10.30;99.90;;;;;;5090201;28;20059;-65
2023/04/26 11:26:02;;;;;;;3.47;1.83;;;10.50;99.90;;;;;;5072836;28;20117;-65
2023/04/26 11:28:30;;;;;;;3.63;2.10;;;10.80;99.90;;;;;;5072632;28;20339;-66
2023/04/26 11:30:57;;;;;;;5.47;2.15;;;10.80;99.90;;;;;;5091252;28;20044;-65
2023/04/26 11:33:24;;;;;;;5.18;1.83;;;10.70;99.80;;;;;;5090503;28;20043;-65
2023/04/26 11:35:52;;;;;;;7.10;2.70;;;10.70;99.90;;;;;;5089983;28;20423;-65
2023/04/26 11:38:21;;;;;;;5.50;2.42;;;10.60;99.90;;;;;;5089950;28;20487;-65
2023/04/26 11:41:02;;;;;;;3.85;1.83;;;10.60;99.90;;;;;;5066342;28;20055;-65
2023/04/26 11:43:38;;;;;;;2.75;1.90;;;10.40;99.50;;;;;;5097331;28;20044;-65
2023/04/26 11:46:06;;;;;;;6.03;2.58;;;10.30;99.60;;;;;;5090351;28;20380;-65
2023/04/26 11:48:35;;;;;;;5.80;2.20;;;10.40;99.00;;;;;;5090942;28;20167;-67
2023/04/26 11:51:03;;;;;;;4.60;1.77;;;10.50;98.60;;;;;;5090498;28;20131;-65
2023/04/26 11:53:41;;;;;;;4.35;2.22;;;10.50;98.40;;;;;;5090405;28;20080;-65
2023/04/26 11:56:14;;;;;;;6.55;2.00;;;10.50;98.80;;;;;;5090384;28;20075;-65
2023/04/26 11:58:44;;;;;;;5.38;1.95;;;10.40;99.40;;;;;;5109826;28;20498;-65
2023/04/26 12:01:10;;;;;;;6.55;2.03;;;10.50;99.90;;;;;;5110999;28;20147;-66
2023/04/26 12:03:36;;;;;;;5.00;1.83;;;10.40;99.60;;;;;;5078599;28;20048;-65
2023/04/26 12:06:03;;;;;;;5.78;2.22;;;10.20;99.40;;;;;;5072207;28;20078;-65
2023/04/26 12:08:32;;;;;;;6.72;2.22;;;10.20;99.80;;;;;;5089756;28;20050;-65
2023/04/26 12:11:02;;;;;;;7.90;2.45;;;10.20;99.90;;;;;;5072358;28;20123;-65
2023/04/26 12:13:29;;;;;;;5.90;2.33;;;10.10;99.90;;;;;;5079140;28;20417;-66
2023/04/26 12:15:55;;;;;;;4.78;2.70;;;10.20;99.90;;;;;;5110642;28;20462;-65
2023/04/26 12:18:55;;;;;;;4.28;2.60;;;10.10;99.90;;;;;;5092463;28;20043;-66
2023/04/26 12:21:23;;;;;;;4.97;2.67;;;10.00;99.90;;;;;;5110220;28;20451;-65
2023/04/26 12:23:49;;;;;;;6.78;2.92;;;9.90;99.90;;;;;;5077213;28;20048;-65
2023/04/26 12:26:16;;;;;;;5.68;2.72;;;10.00;99.90;;;;;;5071897;28;20071;-65
2023/04/26 12:28:42;;;;;;;4.95;2.53;;;10.00;99.90;;;;;;5090326;28;20123;-66
2023/04/26 12:31:09;;;;;;;5.18;2.58;;;10.00;99.90;;;;;;5090210;28;20504;-65
2023/04/26 12:33:42;;;;;;;6.80;2.67;;;10.20;99.90;;;;;;5084381;28;20051;-65
2023/04/26 12:36:10;;;;;;;7.30;2.50;;;10.10;99.90;;;;;;5110853;28;20307;-65
2023/04/26 12:38:38;;;;;;;5.63;3.47;;;10.10;99.90;;;;;;5110287;28;20444;-65
2023/04/26 12:41:04;;;;;;;5.07;3.15;;;10.10;99.90;;;;;;5092326;28;20106;-67
2023/04/26 12:43:31;;;;;;;6.03;2.80;;;9.90;99.90;;;;;;5098061;28;20052;-66
2023/04/26 12:45:57;;;;;;;6.68;2.50;;;9.90;99.90;;;;;;5072264;28;20086;-66
2023/04/26 12:48:23;;;;;;;3.78;2.90;;;9.80;99.90;;;;;;5093825;28;20106;-65
2023/04/26 12:50:50;;;;;;;7.53;2.90;;;9.70;99.90;;;;;;5094322;28;20424;-65
2023/04/26 12:53:17;;;;;;;7.07;3.22;;;9.70;99.90;;;;;;5103478;28;20417;-65
2023/04/26 12:55:43;;;;;;;9.88;3.03;;;9.70;99.90;;;;;;5096014;28;20090;-65
2023/04/26 12:58:10;;;;;;;6.07;3.17;;;9.70;99.90;;;;;;5095882;28;20548;-66
2023/04/26 13:00:36;;;;;;;3.53;2.53;;;9.70;99.90;;;;;;5114437;28;20097;-64